sensor_id;sensor_type;location;lat;lon;timestamp;P1;durP1;ratioP1;P2;durP2;ratioP2
76731;SDS011;65656;51.130;13.658;2023-05-07T00:02:50;39.10;;;34.80;;
76731;SDS011;65656;51.130;13.658;2023-05-07T00:06:52;38.47;;;25.48;;
76731;SDS011;65656;51.130;13.658;2023-05-07T00:10:53;39.30;;;33.55;;
76731;SDS011;65656;51.130;13.658;2023-05-07T00:14:55;40.75;;;34.00;;
76731;SDS011;65656;51.130;13.658;2023-05-07T00:18:58;34.72;;;25.80;;
76731;SDS011;65656;51.130;13.658;2023-05-07T00:22:59;45.83;;;31.00;;
76731;SDS011;65656;51.130;13.658;2023-05-07T00:27:01;45.42;;;32.63;;
76731;SDS011;65656;51.130;13.658;2023-05-07T00:31:02;38.85;;;27.98;;
76731;SDS011;65656;51.130;13.658;2023-05-07T00:35:06;38.45;;;27.02;;
76731;SDS011;65656;51.130;13.658;2023-05-07T00:39:09;40.67;;;29.58;;
76731;SDS011;65656;51.130;13.658;2023-05-07T00:43:10;41.90;;;27.30;;
76731;SDS011;65656;51.130;13.658;2023-05-07T00:47:12;40.35;;;28.67;;
76731;SDS011;65656;51.130;13.658;2023-05-07T00:51:16;38.03;;;31.10;;
76731;SDS011;65656;51.130;13.658;2023-05-07T00:55:18;37.50;;;26.10;;
76731;SDS011;65656;51.130;13.658;2023-05-07T00:59:19;36.50;;;29.00;;
76731;SDS011;65656;51.130;13.658;2023-05-07T01:03:21;36.47;;;24.52;;
76731;SDS011;65656;51.130;13.658;2023-05-07T01:07:24;33.40;;;27.23;;
76731;SDS011;65656;51.130;13.658;2023-05-07T01:11:26;42.42;;;28.23;;
76731;SDS011;65656;51.130;13.658;2023-05-07T01:15:28;32.83;;;26.00;;
76731;SDS011;65656;51.130;13.658;2023-05-07T01:19:29;30.15;;;26.98;;
76731;SDS011;65656;51.130;13.658;2023-05-07T01:23:33;33.35;;;28.55;;
76731;SDS011;65656;51.130;13.658;2023-05-07T01:27:35;34.78;;;31.38;;
76731;SDS011;65656;51.130;13.658;2023-05-07T01:31:37;31.23;;;27.05;;
76731;SDS011;65656;51.130;13.658;2023-05-07T01:35:40;30.67;;;24.58;;
76731;SDS011;65656;51.130;13.658;2023-05-07T01:39:46;25.88;;;22.55;;
76731;SDS011;65656;51.130;13.658;2023-05-07T01:43:48;31.20;;;24.90;;
76731;SDS011;65656;51.130;13.658;2023-05-07T01:47:51;32.75;;;24.40;;
76731;SDS011;65656;51.130;13.658;2023-05-07T01:51:54;30.48;;;26.05;;
76731;SDS011;65656;51.130;13.658;2023-05-07T01:55:57;30.45;;;25.20;;
76731;SDS011;65656;51.130;13.658;2023-05-07T01:59:58;30.58;;;27.10;;
76731;SDS011;65656;51.130;13.658;2023-05-07T02:04:00;28.60;;;23.33;;
76731;SDS011;65656;51.130;13.658;2023-05-07T02:08:02;31.48;;;25.30;;
76731;SDS011;65656;51.130;13.658;2023-05-07T02:12:05;31.58;;;25.20;;
76731;SDS011;65656;51.130;13.658;2023-05-07T02:16:07;30.63;;;22.27;;
76731;SDS011;65656;51.130;13.658;2023-05-07T02:20:08;30.15;;;26.60;;
76731;SDS011;65656;51.130;13.658;2023-05-07T02:24:10;29.73;;;23.00;;
76731;SDS011;65656;51.130;13.658;2023-05-07T02:28:13;34.92;;;26.50;;
76731;SDS011;65656;51.130;13.658;2023-05-07T02:32:15;30.65;;;25.85;;
76731;SDS011;65656;51.130;13.658;2023-05-07T02:36:16;32.00;;;27.25;;
76731;SDS011;65656;51.130;13.658;2023-05-07T02:40:18;33.17;;;29.10;;
76731;SDS011;65656;51.130;13.658;2023-05-07T02:44:21;31.23;;;27.45;;
76731;SDS011;65656;51.130;13.658;2023-05-07T02:48:22;33.15;;;27.15;;
76731;SDS011;65656;51.130;13.658;2023-05-07T02:52:24;33.33;;;26.25;;
76731;SDS011;65656;51.130;13.658;2023-05-07T02:56:26;33.95;;;25.88;;
76731;SDS011;65656;51.130;13.658;2023-05-07T03:00:29;39.03;;;33.00;;
76731;SDS011;65656;51.130;13.658;2023-05-07T03:04:30;35.50;;;28.13;;
76731;SDS011;65656;51.130;13.658;2023-05-07T03:08:32;37.28;;;27.77;;
76731;SDS011;65656;51.130;13.658;2023-05-07T03:12:34;41.25;;;32.35;;
76731;SDS011;65656;51.130;13.658;2023-05-07T03:16:37;39.38;;;34.58;;
76731;SDS011;65656;51.130;13.658;2023-05-07T03:20:38;35.78;;;27.98;;
76731;SDS011;65656;51.130;13.658;2023-05-07T03:24:40;37.80;;;27.65;;
76731;SDS011;65656;51.130;13.658;2023-05-07T03:28:41;35.88;;;26.00;;
76731;SDS011;65656;51.130;13.658;2023-05-07T03:32:44;29.73;;;25.88;;
76731;SDS011;65656;51.130;13.658;2023-05-07T03:36:46;34.80;;;30.52;;
76731;SDS011;65656;51.130;13.658;2023-05-07T03:40:47;34.50;;;29.83;;
76731;SDS011;65656;51.130;13.658;2023-05-07T03:44:49;33.95;;;25.30;;
76731;SDS011;65656;51.130;13.658;2023-05-07T03:48:52;35.58;;;28.65;;
76731;SDS011;65656;51.130;13.658;2023-05-07T03:52:53;37.22;;;32.45;;
76731;SDS011;65656;51.130;13.658;2023-05-07T03:56:55;34.58;;;26.00;;
76731;SDS011;65656;51.130;13.658;2023-05-07T04:00:56;36.80;;;26.75;;
76731;SDS011;65656;51.130;13.658;2023-05-07T04:04:59;43.15;;;33.58;;
76731;SDS011;65656;51.130;13.658;2023-05-07T04:09:00;34.28;;;26.23;;
76731;SDS011;65656;51.130;13.658;2023-05-07T04:13:02;36.72;;;28.52;;
76731;SDS011;65656;51.130;13.658;2023-05-07T04:17:03;44.38;;;33.58;;
76731;SDS011;65656;51.130;13.658;2023-05-07T04:21:06;38.40;;;33.60;;
76731;SDS011;65656;51.130;13.658;2023-05-07T04:25:15;35.10;;;31.13;;
76731;SDS011;65656;51.130;13.658;2023-05-07T04:29:17;35.65;;;31.55;;
76731;SDS011;65656;51.130;13.658;2023-05-07T04:33:18;30.42;;;22.65;;
76731;SDS011;65656;51.130;13.658;2023-05-07T04:37:21;33.10;;;27.15;;
76731;SDS011;65656;51.130;13.658;2023-05-07T04:41:23;33.60;;;29.23;;
76731;SDS011;65656;51.130;13.658;2023-05-07T04:45:24;32.15;;;27.75;;
76731;SDS011;65656;51.130;13.658;2023-05-07T04:49:26;31.92;;;25.48;;
76731;SDS011;65656;51.130;13.658;2023-05-07T04:53:29;32.53;;;27.60;;
76731;SDS011;65656;51.130;13.658;2023-05-07T04:57:30;30.77;;;25.83;;
76731;SDS011;65656;51.130;13.658;2023-05-07T05:01:31;32.80;;;27.98;;
76731;SDS011;65656;51.130;13.658;2023-05-07T05:05:33;34.30;;;30.83;;
76731;SDS011;65656;51.130;13.658;2023-05-07T05:09:36;26.60;;;22.70;;
76731;SDS011;65656;51.130;13.658;2023-05-07T05:13:37;22.33;;;16.73;;
76731;SDS011;65656;51.130;13.658;2023-05-07T05:17:39;26.05;;;21.90;;
76731;SDS011;65656;51.130;13.658;2023-05-07T05:21:40;34.90;;;31.48;;
76731;SDS011;65656;51.130;13.658;2023-05-07T05:25:43;28.95;;;22.45;;
76731;SDS011;65656;51.130;13.658;2023-05-07T05:29:45;29.58;;;22.40;;
76731;SDS011;65656;51.130;13.658;2023-05-07T05:33:46;27.23;;;24.60;;
76731;SDS011;65656;51.130;13.658;2023-05-07T05:37:48;23.67;;;19.98;;
76731;SDS011;65656;51.130;13.658;2023-05-07T05:41:51;22.60;;;18.42;;
76731;SDS011;65656;51.130;13.658;2023-05-07T05:45:52;23.35;;;20.90;;
76731;SDS011;65656;51.130;13.658;2023-05-07T05:49:54;26.25;;;22.60;;
76731;SDS011;65656;51.130;13.658;2023-05-07T05:53:55;25.20;;;19.63;;
76731;SDS011;65656;51.130;13.658;2023-05-07T05:57:58;27.30;;;24.55;;
76731;SDS011;65656;51.130;13.658;2023-05-07T06:01:59;23.05;;;19.75;;
76731;SDS011;65656;51.130;13.658;2023-05-07T06:06:01;22.85;;;18.70;;
76731;SDS011;65656;51.130;13.658;2023-05-07T06:10:03;20.60;;;17.52;;
76731;SDS011;65656;51.130;13.658;2023-05-07T06:14:07;18.80;;;15.38;;
76731;SDS011;65656;51.130;13.658;2023-05-07T06:18:08;20.85;;;18.77;;
76731;SDS011;65656;51.130;13.658;2023-05-07T06:22:10;17.63;;;15.80;;
76731;SDS011;65656;51.130;13.658;2023-05-07T06:26:11;21.90;;;19.88;;
76731;SDS011;65656;51.130;13.658;2023-05-07T06:30:14;34.50;;;32.40;;
76731;SDS011;65656;51.130;13.658;2023-05-07T06:34:16;19.55;;;17.98;;
76731;SDS011;65656;51.130;13.658;2023-05-07T06:38:17;15.10;;;13.55;;
76731;SDS011;65656;51.130;13.658;2023-05-07T06:42:19;16.90;;;15.20;;
76731;SDS011;65656;51.130;13.658;2023-05-07T06:46:22;20.30;;;18.58;;
76731;SDS011;65656;51.130;13.658;2023-05-07T06:50:23;17.90;;;16.25;;
76731;SDS011;65656;51.130;13.658;2023-05-07T06:54:25;18.73;;;16.77;;
76731;SDS011;65656;51.130;13.658;2023-05-07T06:58:26;18.95;;;17.02;;
76731;SDS011;65656;51.130;13.658;2023-05-07T07:02:29;20.10;;;18.10;;
76731;SDS011;65656;51.130;13.658;2023-05-07T07:06:31;19.90;;;17.92;;
76731;SDS011;65656;51.130;13.658;2023-05-07T07:10:32;17.83;;;14.35;;
76731;SDS011;65656;51.130;13.658;2023-05-07T07:14:34;22.10;;;20.13;;
76731;SDS011;65656;51.130;13.658;2023-05-07T07:18:37;20.50;;;18.77;;
76731;SDS011;65656;51.130;13.658;2023-05-07T07:22:39;18.48;;;16.77;;
76731;SDS011;65656;51.130;13.658;2023-05-07T07:26:40;15.35;;;12.88;;
76731;SDS011;65656;51.130;13.658;2023-05-07T07:30:42;16.73;;;15.48;;
76731;SDS011;65656;51.130;13.658;2023-05-07T07:34:45;18.20;;;16.77;;
76731;SDS011;65656;51.130;13.658;2023-05-07T07:38:46;16.42;;;15.20;;
76731;SDS011;65656;51.130;13.658;2023-05-07T07:42:48;21.95;;;20.55;;
76731;SDS011;65656;51.130;13.658;2023-05-07T07:46:49;16.27;;;15.18;;
76731;SDS011;65656;51.130;13.658;2023-05-07T07:50:52;12.07;;;11.15;;
76731;SDS011;65656;51.130;13.658;2023-05-07T07:54:53;12.10;;;11.23;;
76731;SDS011;65656;51.130;13.658;2023-05-07T07:58:55;13.18;;;12.05;;
76731;SDS011;65656;51.130;13.658;2023-05-07T08:02:56;12.25;;;11.43;;
76731;SDS011;65656;51.130;13.658;2023-05-07T08:06:59;12.73;;;11.70;;
76731;SDS011;65656;51.130;13.658;2023-05-07T08:11:01;18.30;;;17.00;;
76731;SDS011;65656;51.130;13.658;2023-05-07T08:15:03;12.57;;;11.65;;
76731;SDS011;65656;51.130;13.658;2023-05-07T08:19:05;11.27;;;10.20;;
76731;SDS011;65656;51.130;13.658;2023-05-07T08:23:08;11.50;;;10.52;;
76731;SDS011;65656;51.130;13.658;2023-05-07T08:27:09;16.25;;;15.02;;
76731;SDS011;65656;51.130;13.658;2023-05-07T08:31:11;10.63;;;9.65;;
76731;SDS011;65656;51.130;13.658;2023-05-07T08:35:12;14.05;;;13.02;;
76731;SDS011;65656;51.130;13.658;2023-05-07T08:39:16;8.85;;;7.88;;
76731;SDS011;65656;51.130;13.658;2023-05-07T08:43:17;8.50;;;7.70;;
76731;SDS011;65656;51.130;13.658;2023-05-07T08:47:20;13.70;;;12.52;;
76731;SDS011;65656;51.130;13.658;2023-05-07T08:51:24;17.80;;;16.40;;
76731;SDS011;65656;51.130;13.658;2023-05-07T08:55:28;15.73;;;14.23;;
76731;SDS011;65656;51.130;13.658;2023-05-07T08:59:30;15.38;;;13.63;;
76731;SDS011;65656;51.130;13.658;2023-05-07T09:03:31;14.48;;;13.15;;
76731;SDS011;65656;51.130;13.658;2023-05-07T09:07:33;12.07;;;10.85;;
76731;SDS011;65656;51.130;13.658;2023-05-07T09:11:36;18.48;;;16.95;;
76731;SDS011;65656;51.130;13.658;2023-05-07T09:15:37;12.73;;;11.32;;
76731;SDS011;65656;51.130;13.658;2023-05-07T09:19:39;13.82;;;12.32;;
76731;SDS011;65656;51.130;13.658;2023-05-07T09:23:41;14.75;;;13.23;;
76731;SDS011;65656;51.130;13.658;2023-05-07T09:27:44;18.13;;;16.65;;
76731;SDS011;65656;51.130;13.658;2023-05-07T09:31:45;14.50;;;13.10;;
76731;SDS011;65656;51.130;13.658;2023-05-07T09:35:48;14.07;;;12.70;;
76731;SDS011;65656;51.130;13.658;2023-05-07T09:39:52;16.38;;;14.93;;
76731;SDS011;65656;51.130;13.658;2023-05-07T09:43:55;18.00;;;16.30;;
76731;SDS011;65656;51.130;13.658;2023-05-07T09:47:58;16.00;;;14.55;;
76731;SDS011;65656;51.130;13.658;2023-05-07T09:52:00;15.05;;;13.70;;
76731;SDS011;65656;51.130;13.658;2023-05-07T09:56:03;15.05;;;13.73;;
76731;SDS011;65656;51.130;13.658;2023-05-07T10:00:07;16.35;;;14.93;;
76731;SDS011;65656;51.130;13.658;2023-05-07T10:08:13;13.80;;;12.48;;
76731;SDS011;65656;51.130;13.658;2023-05-07T10:12:14;15.57;;;14.15;;
76731;SDS011;65656;51.130;13.658;2023-05-07T10:16:18;17.55;;;16.05;;
76731;SDS011;65656;51.130;13.658;2023-05-07T10:20:20;14.45;;;13.13;;
76731;SDS011;65656;51.130;13.658;2023-05-07T10:24:24;16.73;;;15.10;;
76731;SDS011;65656;51.130;13.658;2023-05-07T10:28:27;17.95;;;16.33;;
76731;SDS011;65656;51.130;13.658;2023-05-07T10:32:35;15.57;;;14.23;;
76731;SDS011;65656;51.130;13.658;2023-05-07T10:36:40;18.80;;;17.08;;
76731;SDS011;65656;51.130;13.658;2023-05-07T10:40:42;13.95;;;12.55;;
76731;SDS011;65656;51.130;13.658;2023-05-07T10:44:48;12.10;;;10.85;;
76731;SDS011;65656;51.130;13.658;2023-05-07T10:49:10;14.02;;;12.68;;
76731;SDS011;65656;51.130;13.658;2023-05-07T10:53:21;15.80;;;14.50;;
76731;SDS011;65656;51.130;13.658;2023-05-07T10:57:32;18.08;;;16.75;;
76731;SDS011;65656;51.130;13.658;2023-05-07T11:01:50;14.38;;;12.98;;
76731;SDS011;65656;51.130;13.658;2023-05-07T11:06:12;14.63;;;13.43;;
76731;SDS011;65656;51.130;13.658;2023-05-07T11:10:14;14.13;;;12.90;;
76731;SDS011;65656;51.130;13.658;2023-05-07T11:18:47;14.45;;;13.30;;
76731;SDS011;65656;51.130;13.658;2023-05-07T11:22:51;13.02;;;11.95;;
76731;SDS011;65656;51.130;13.658;2023-05-07T11:26:54;15.18;;;13.98;;
76731;SDS011;65656;51.130;13.658;2023-05-07T11:30:56;16.17;;;15.05;;
76731;SDS011;65656;51.130;13.658;2023-05-07T11:34:58;12.13;;;11.07;;
76731;SDS011;65656;51.130;13.658;2023-05-07T11:39:02;12.80;;;11.68;;
76731;SDS011;65656;51.130;13.658;2023-05-07T11:43:09;11.10;;;10.13;;
76731;SDS011;65656;51.130;13.658;2023-05-07T11:47:12;14.77;;;13.68;;
76731;SDS011;65656;51.130;13.658;2023-05-07T11:51:18;11.05;;;10.00;;
76731;SDS011;65656;51.130;13.658;2023-05-07T11:55:23;12.18;;;11.15;;
76731;SDS011;65656;51.130;13.658;2023-05-07T11:59:25;12.23;;;11.13;;
76731;SDS011;65656;51.130;13.658;2023-05-07T12:03:27;11.40;;;10.30;;
76731;SDS011;65656;51.130;13.658;2023-05-07T12:07:32;13.13;;;12.13;;
76731;SDS011;65656;51.130;13.658;2023-05-07T12:11:35;10.43;;;9.40;;
76731;SDS011;65656;51.130;13.658;2023-05-07T12:15:37;12.35;;;11.25;;
76731;SDS011;65656;51.130;13.658;2023-05-07T12:19:39;11.82;;;10.88;;
76731;SDS011;65656;51.130;13.658;2023-05-07T12:23:42;11.55;;;10.48;;
76731;SDS011;65656;51.130;13.658;2023-05-07T12:27:45;10.07;;;8.98;;
76731;SDS011;65656;51.130;13.658;2023-05-07T12:31:52;12.07;;;10.93;;
76731;SDS011;65656;51.130;13.658;2023-05-07T12:35:54;9.73;;;8.82;;
76731;SDS011;65656;51.130;13.658;2023-05-07T12:40:06;9.77;;;8.95;;
76731;SDS011;65656;51.130;13.658;2023-05-07T12:44:10;9.80;;;8.88;;
76731;SDS011;65656;51.130;13.658;2023-05-07T12:48:12;14.48;;;13.45;;
76731;SDS011;65656;51.130;13.658;2023-05-07T12:52:14;15.98;;;14.85;;
76731;SDS011;65656;51.130;13.658;2023-05-07T12:56:15;13.80;;;12.68;;
76731;SDS011;65656;51.130;13.658;2023-05-07T13:00:18;15.45;;;14.15;;
76731;SDS011;65656;51.130;13.658;2023-05-07T13:04:33;12.73;;;11.35;;
76731;SDS011;65656;51.130;13.658;2023-05-07T13:08:36;10.38;;;9.48;;
76731;SDS011;65656;51.130;13.658;2023-05-07T13:12:39;14.05;;;13.13;;
76731;SDS011;65656;51.130;13.658;2023-05-07T13:16:42;11.20;;;10.32;;
76731;SDS011;65656;51.130;13.658;2023-05-07T13:20:43;9.52;;;8.73;;
76731;SDS011;65656;51.130;13.658;2023-05-07T13:24:45;10.77;;;9.95;;
76731;SDS011;65656;51.130;13.658;2023-05-07T13:28:46;12.10;;;11.20;;
76731;SDS011;65656;51.130;13.658;2023-05-07T13:32:49;11.15;;;9.80;;
76731;SDS011;65656;51.130;13.658;2023-05-07T13:36:51;9.00;;;8.18;;
76731;SDS011;65656;51.130;13.658;2023-05-07T13:40:52;11.02;;;9.32;;
76731;SDS011;65656;51.130;13.658;2023-05-07T13:44:54;9.05;;;8.32;;
76731;SDS011;65656;51.130;13.658;2023-05-07T13:48:56;7.68;;;7.05;;
76731;SDS011;65656;51.130;13.658;2023-05-07T13:52:58;10.40;;;9.57;;
76731;SDS011;65656;51.130;13.658;2023-05-07T13:56:59;9.38;;;8.38;;
76731;SDS011;65656;51.130;13.658;2023-05-07T14:01:01;8.95;;;8.25;;
76731;SDS011;65656;51.130;13.658;2023-05-07T14:05:05;11.73;;;10.82;;
76731;SDS011;65656;51.130;13.658;2023-05-07T14:09:06;12.35;;;11.45;;
76731;SDS011;65656;51.130;13.658;2023-05-07T14:13:08;9.35;;;8.55;;
76731;SDS011;65656;51.130;13.658;2023-05-07T14:17:09;11.02;;;10.13;;
76731;SDS011;65656;51.130;13.658;2023-05-07T14:21:12;13.07;;;11.98;;
76731;SDS011;65656;51.130;13.658;2023-05-07T14:25:14;7.30;;;6.57;;
76731;SDS011;65656;51.130;13.658;2023-05-07T14:29:16;9.60;;;8.85;;
76731;SDS011;65656;51.130;13.658;2023-05-07T14:33:17;12.02;;;11.23;;
76731;SDS011;65656;51.130;13.658;2023-05-07T14:37:20;10.85;;;10.05;;
76731;SDS011;65656;51.130;13.658;2023-05-07T14:41:22;10.82;;;10.02;;
76731;SDS011;65656;51.130;13.658;2023-05-07T14:45:23;11.32;;;10.30;;
76731;SDS011;65656;51.130;13.658;2023-05-07T14:49:25;10.52;;;9.63;;
76731;SDS011;65656;51.130;13.658;2023-05-07T14:53:28;12.23;;;11.20;;
76731;SDS011;65656;51.130;13.658;2023-05-07T14:57:29;13.63;;;12.65;;
76731;SDS011;65656;51.130;13.658;2023-05-07T15:01:33;9.80;;;9.00;;
76731;SDS011;65656;51.130;13.658;2023-05-07T15:05:36;14.45;;;12.77;;
76731;SDS011;65656;51.130;13.658;2023-05-07T15:09:40;10.02;;;9.13;;
76731;SDS011;65656;51.130;13.658;2023-05-07T15:13:41;8.90;;;8.10;;
76731;SDS011;65656;51.130;13.658;2023-05-07T15:17:43;11.15;;;9.82;;
76731;SDS011;65656;51.130;13.658;2023-05-07T15:21:45;11.70;;;10.80;;
76731;SDS011;65656;51.130;13.658;2023-05-07T15:25:47;10.85;;;9.93;;
76731;SDS011;65656;51.130;13.658;2023-05-07T15:29:52;14.27;;;13.13;;
76731;SDS011;65656;51.130;13.658;2023-05-07T15:33:54;17.83;;;16.60;;
76731;SDS011;65656;51.130;13.658;2023-05-07T15:37:55;13.13;;;11.95;;
76731;SDS011;65656;51.130;13.658;2023-05-07T15:41:58;15.75;;;14.63;;
76731;SDS011;65656;51.130;13.658;2023-05-07T15:46:00;18.50;;;17.10;;
76731;SDS011;65656;51.130;13.658;2023-05-07T15:50:02;14.77;;;13.57;;
76731;SDS011;65656;51.130;13.658;2023-05-07T15:54:03;13.93;;;12.80;;
76731;SDS011;65656;51.130;13.658;2023-05-07T15:58:06;15.02;;;13.73;;
76731;SDS011;65656;51.130;13.658;2023-05-07T16:02:08;17.90;;;16.67;;
76731;SDS011;65656;51.130;13.658;2023-05-07T16:06:09;16.92;;;15.60;;
76731;SDS011;65656;51.130;13.658;2023-05-07T16:10:11;14.07;;;12.95;;
76731;SDS011;65656;51.130;13.658;2023-05-07T16:14:14;14.43;;;13.40;;
76731;SDS011;65656;51.130;13.658;2023-05-07T16:18:15;16.23;;;15.02;;
76731;SDS011;65656;51.130;13.658;2023-05-07T16:22:16;11.85;;;10.73;;
76731;SDS011;65656;51.130;13.658;2023-05-07T16:26:18;16.77;;;15.38;;
76731;SDS011;65656;51.130;13.658;2023-05-07T16:30:21;14.50;;;13.20;;
76731;SDS011;65656;51.130;13.658;2023-05-07T16:34:22;13.48;;;11.85;;
76731;SDS011;65656;51.130;13.658;2023-05-07T16:38:24;16.30;;;15.07;;
76731;SDS011;65656;51.130;13.658;2023-05-07T16:42:25;12.38;;;11.30;;
76731;SDS011;65656;51.130;13.658;2023-05-07T16:46:29;14.75;;;13.45;;
76731;SDS011;65656;51.130;13.658;2023-05-07T16:50:30;15.77;;;14.60;;
76731;SDS011;65656;51.130;13.658;2023-05-07T16:54:32;18.85;;;17.52;;
76731;SDS011;65656;51.130;13.658;2023-05-07T16:58:35;21.13;;;19.70;;
76731;SDS011;65656;51.130;13.658;2023-05-07T17:02:38;16.25;;;15.05;;
76731;SDS011;65656;51.130;13.658;2023-05-07T17:06:40;13.35;;;12.23;;
76731;SDS011;65656;51.130;13.658;2023-05-07T17:10:41;12.98;;;11.73;;
76731;SDS011;65656;51.130;13.658;2023-05-07T17:14:43;19.35;;;18.00;;
76731;SDS011;65656;51.130;13.658;2023-05-07T17:18:46;16.45;;;15.07;;
76731;SDS011;65656;51.130;13.658;2023-05-07T17:22:47;21.17;;;19.63;;
76731;SDS011;65656;51.130;13.658;2023-05-07T17:26:49;16.10;;;14.98;;
76731;SDS011;65656;51.130;13.658;2023-05-07T17:30:50;18.27;;;16.90;;
76731;SDS011;65656;51.130;13.658;2023-05-07T17:34:53;20.17;;;18.75;;
76731;SDS011;65656;51.130;13.658;2023-05-07T17:38:54;22.08;;;20.60;;
76731;SDS011;65656;51.130;13.658;2023-05-07T17:42:56;21.98;;;20.45;;
76731;SDS011;65656;51.130;13.658;2023-05-07T17:46:59;14.35;;;13.32;;
76731;SDS011;65656;51.130;13.658;2023-05-07T17:51:02;17.95;;;16.73;;
76731;SDS011;65656;51.130;13.658;2023-05-07T17:55:04;15.13;;;14.07;;
76731;SDS011;65656;51.130;13.658;2023-05-07T17:59:07;14.07;;;12.98;;
76731;SDS011;65656;51.130;13.658;2023-05-07T18:03:08;10.65;;;9.63;;
76731;SDS011;65656;51.130;13.658;2023-05-07T18:07:11;19.13;;;17.67;;
76731;SDS011;65656;51.130;13.658;2023-05-07T18:11:13;11.93;;;10.90;;
76731;SDS011;65656;51.130;13.658;2023-05-07T18:15:14;13.90;;;12.80;;
76731;SDS011;65656;51.130;13.658;2023-05-07T18:19:16;17.65;;;16.30;;
76731;SDS011;65656;51.130;13.658;2023-05-07T18:23:19;13.30;;;12.07;;
76731;SDS011;65656;51.130;13.658;2023-05-07T18:27:20;12.85;;;11.77;;
76731;SDS011;65656;51.130;13.658;2023-05-07T18:31:22;20.02;;;18.58;;
76731;SDS011;65656;51.130;13.658;2023-05-07T18:35:23;22.08;;;20.35;;
76731;SDS011;65656;51.130;13.658;2023-05-07T18:39:26;14.35;;;13.05;;
76731;SDS011;65656;51.130;13.658;2023-05-07T18:43:28;17.70;;;16.35;;
76731;SDS011;65656;51.130;13.658;2023-05-07T18:47:29;13.68;;;12.38;;
76731;SDS011;65656;51.130;13.658;2023-05-07T18:51:31;14.90;;;13.43;;
76731;SDS011;65656;51.130;13.658;2023-05-07T18:55:33;14.32;;;12.90;;
76731;SDS011;65656;51.130;13.658;2023-05-07T18:59:35;12.90;;;11.70;;
76731;SDS011;65656;51.130;13.658;2023-05-07T19:03:36;14.93;;;13.52;;
76731;SDS011;65656;51.130;13.658;2023-05-07T19:07:38;16.10;;;14.73;;
76731;SDS011;65656;51.130;13.658;2023-05-07T19:11:41;15.20;;;13.88;;
76731;SDS011;65656;51.130;13.658;2023-05-07T19:15:42;14.23;;;13.02;;
76731;SDS011;65656;51.130;13.658;2023-05-07T19:19:44;14.15;;;12.80;;
76731;SDS011;65656;51.130;13.658;2023-05-07T19:23:45;18.70;;;17.13;;
76731;SDS011;65656;51.130;13.658;2023-05-07T19:27:48;16.17;;;14.85;;
76731;SDS011;65656;51.130;13.658;2023-05-07T19:31:50;17.65;;;16.23;;
76731;SDS011;65656;51.130;13.658;2023-05-07T19:35:51;22.58;;;20.85;;
76731;SDS011;65656;51.130;13.658;2023-05-07T19:39:53;14.48;;;13.15;;
76731;SDS011;65656;51.130;13.658;2023-05-07T19:43:56;16.35;;;14.98;;
76731;SDS011;65656;51.130;13.658;2023-05-07T19:47:57;15.98;;;14.77;;
76731;SDS011;65656;51.130;13.658;2023-05-07T19:51:59;14.85;;;13.43;;
76731;SDS011;65656;51.130;13.658;2023-05-07T19:56:02;22.35;;;20.73;;
76731;SDS011;65656;51.130;13.658;2023-05-07T20:00:06;15.48;;;14.10;;
76731;SDS011;65656;51.130;13.658;2023-05-07T20:04:08;17.15;;;15.73;;
76731;SDS011;65656;51.130;13.658;2023-05-07T20:08:10;16.23;;;14.02;;
76731;SDS011;65656;51.130;13.658;2023-05-07T20:12:11;16.50;;;15.00;;
76731;SDS011;65656;51.130;13.658;2023-05-07T20:16:14;18.98;;;17.55;;
76731;SDS011;65656;51.130;13.658;2023-05-07T20:20:16;17.85;;;16.35;;
76731;SDS011;65656;51.130;13.658;2023-05-07T20:24:17;20.80;;;19.20;;
76731;SDS011;65656;51.130;13.658;2023-05-07T20:28:19;17.45;;;16.13;;
76731;SDS011;65656;51.130;13.658;2023-05-07T20:32:22;23.65;;;21.92;;
76731;SDS011;65656;51.130;13.658;2023-05-07T20:36:23;15.80;;;14.50;;
76731;SDS011;65656;51.130;13.658;2023-05-07T20:40:25;14.38;;;13.02;;
76731;SDS011;65656;51.130;13.658;2023-05-07T20:44:27;16.60;;;15.20;;
76731;SDS011;65656;51.130;13.658;2023-05-07T20:48:29;20.85;;;19.42;;
76731;SDS011;65656;51.130;13.658;2023-05-07T20:52:31;13.25;;;12.13;;
76731;SDS011;65656;51.130;13.658;2023-05-07T20:56:33;23.77;;;22.23;;
76731;SDS011;65656;51.130;13.658;2023-05-07T21:00:34;15.15;;;13.95;;
76731;SDS011;65656;51.130;13.658;2023-05-07T21:04:37;13.60;;;12.55;;
76731;SDS011;65656;51.130;13.658;2023-05-07T21:08:39;14.00;;;12.88;;
76731;SDS011;65656;51.130;13.658;2023-05-07T21:12:40;14.25;;;13.05;;
76731;SDS011;65656;51.130;13.658;2023-05-07T21:16:42;12.63;;;11.75;;
76731;SDS011;65656;51.130;13.658;2023-05-07T21:20:45;15.68;;;14.52;;
76731;SDS011;65656;51.130;13.658;2023-05-07T21:24:46;22.02;;;20.60;;
76731;SDS011;65656;51.130;13.658;2023-05-07T21:28:48;13.57;;;12.50;;
76731;SDS011;65656;51.130;13.658;2023-05-07T21:32:50;19.42;;;18.02;;
76731;SDS011;65656;51.130;13.658;2023-05-07T21:36:53;15.93;;;14.73;;
76731;SDS011;65656;51.130;13.658;2023-05-07T21:40:54;18.25;;;17.08;;
76731;SDS011;65656;51.130;13.658;2023-05-07T21:44:56;19.25;;;18.00;;
76731;SDS011;65656;51.130;13.658;2023-05-07T21:48:58;11.77;;;10.82;;
76731;SDS011;65656;51.130;13.658;2023-05-07T21:53:01;17.35;;;16.27;;
76731;SDS011;65656;51.130;13.658;2023-05-07T21:57:02;12.50;;;11.57;;
76731;SDS011;65656;51.130;13.658;2023-05-07T22:01:04;12.02;;;11.10;;
76731;SDS011;65656;51.130;13.658;2023-05-07T22:05:06;15.35;;;14.20;;
76731;SDS011;65656;51.130;13.658;2023-05-07T22:09:09;13.27;;;12.25;;
76731;SDS011;65656;51.130;13.658;2023-05-07T22:13:11;11.55;;;10.60;;
76731;SDS011;65656;51.130;13.658;2023-05-07T22:17:13;11.88;;;10.98;;
76731;SDS011;65656;51.130;13.658;2023-05-07T22:21:14;11.50;;;10.40;;
76731;SDS011;65656;51.130;13.658;2023-05-07T22:25:17;13.93;;;12.80;;
76731;SDS011;65656;51.130;13.658;2023-05-07T22:29:19;11.82;;;10.75;;
76731;SDS011;65656;51.130;13.658;2023-05-07T22:33:21;12.68;;;11.55;;
76731;SDS011;65656;51.130;13.658;2023-05-07T22:37:22;14.98;;;13.80;;
76731;SDS011;65656;51.130;13.658;2023-05-07T22:41:28;10.70;;;9.68;;
76731;SDS011;65656;51.130;13.658;2023-05-07T22:45:29;10.13;;;8.88;;
76731;SDS011;65656;51.130;13.658;2023-05-07T22:49:32;10.38;;;9.05;;
76731;SDS011;65656;51.130;13.658;2023-05-07T22:53:34;15.85;;;14.63;;
76731;SDS011;65656;51.130;13.658;2023-05-07T22:57:37;13.48;;;12.35;;
76731;SDS011;65656;51.130;13.658;2023-05-07T23:01:38;11.77;;;10.80;;
76731;SDS011;65656;51.130;13.658;2023-05-07T23:05:40;13.25;;;12.15;;
76731;SDS011;65656;51.130;13.658;2023-05-07T23:09:41;16.10;;;14.77;;
76731;SDS011;65656;51.130;13.658;2023-05-07T23:13:44;13.63;;;12.48;;
76731;SDS011;65656;51.130;13.658;2023-05-07T23:17:46;18.40;;;17.05;;
76731;SDS011;65656;51.130;13.658;2023-05-07T23:21:47;20.10;;;18.70;;
76731;SDS011;65656;51.130;13.658;2023-05-07T23:25:49;15.63;;;14.32;;
76731;SDS011;65656;51.130;13.658;2023-05-07T23:29:53;17.27;;;15.80;;